createdAt,value
2023-03-03T00:01:15.834Z,39.90
2023-03-03T00:03:43.808Z,40.00
2023-03-03T00:06:14.860Z,40.10
2023-03-03T00:08:44.393Z,40.10
2023-03-03T00:11:15.694Z,40.20
2023-03-03T00:13:45.118Z,40.10
2023-03-03T00:16:18.383Z,40.10
2023-03-03T00:18:46.156Z,40.30
2023-03-03T00:21:14.175Z,40.20
2023-03-03T00:23:42.824Z,40.40
2023-03-03T00:26:11.397Z,40.20
2023-03-03T00:28:44.325Z,40.40
2023-03-03T00:31:17.694Z,40.30
2023-03-03T00:33:46.602Z,40.20
2023-03-03T00:36:15.311Z,40.20
2023-03-03T00:38:43.083Z,40.30
2023-03-03T00:41:15.210Z,40.40
2023-03-03T00:43:43.865Z,40.40
2023-03-03T00:46:11.713Z,40.30
2023-03-03T00:48:45.002Z,40.40
2023-03-03T00:51:15.135Z,40.20
2023-03-03T00:53:43.106Z,40.10
2023-03-03T00:56:15.639Z,40.10
2023-03-03T00:58:44.354Z,40.00
2023-03-03T01:01:12.426Z,40.10
2023-03-03T01:03:40.236Z,40.40
2023-03-03T01:06:10.095Z,40.50
2023-03-03T01:08:38.343Z,40.20
2023-03-03T01:11:06.077Z,40.20
2023-03-03T01:13:43.052Z,40.20
2023-03-03T01:16:13.725Z,40.20
2023-03-03T01:18:41.853Z,40.40
2023-03-03T01:21:11.924Z,40.40
2023-03-03T01:23:45.116Z,40.40
2023-03-03T01:26:13.243Z,40.50
2023-03-03T01:28:43.956Z,40.60
2023-03-03T01:31:12.803Z,40.30
2023-03-03T01:33:41.219Z,40.40
2023-03-03T01:36:09.336Z,40.50
2023-03-03T01:38:37.751Z,40.30
2023-03-03T01:41:05.568Z,40.40
2023-03-03T01:43:33.602Z,40.40
2023-03-03T01:46:02.867Z,40.30
2023-03-03T01:48:32.560Z,40.30
2023-03-03T01:51:01.651Z,40.20
2023-03-03T01:53:29.520Z,40.30
2023-03-03T01:55:57.285Z,40.20
2023-03-03T01:58:25.219Z,40.20
2023-03-03T02:00:53.189Z,40.40
2023-03-03T02:03:21.240Z,40.30
2023-03-03T02:05:49.069Z,40.30
2023-03-03T02:08:16.820Z,40.40
2023-03-03T02:10:46.599Z,40.20
2023-03-03T02:13:14.583Z,40.30
2023-03-03T02:15:42.559Z,40.30
2023-03-03T02:18:12.961Z,40.40
2023-03-03T02:20:44.420Z,40.40
2023-03-03T02:23:12.189Z,40.50
2023-03-03T02:25:40.111Z,40.60
2023-03-03T02:28:07.961Z,40.60
2023-03-03T02:30:35.725Z,40.30
2023-03-03T02:33:03.559Z,40.50
2023-03-03T02:35:33.584Z,40.50
2023-03-03T02:38:03.469Z,40.50
2023-03-03T02:40:32.863Z,40.30
2023-03-03T02:43:00.593Z,40.40
2023-03-03T02:45:28.380Z,40.70
2023-03-03T02:47:56.944Z,40.70
2023-03-03T02:50:25.328Z,40.60
2023-03-03T02:52:55.943Z,40.60
2023-03-03T02:55:24.299Z,40.60
2023-03-03T02:57:52.216Z,40.50
2023-03-03T03:00:21.437Z,40.70
2023-03-03T03:02:49.832Z,40.60
2023-03-03T03:05:20.138Z,40.60
2023-03-03T03:07:47.865Z,40.40
2023-03-03T03:10:15.700Z,40.50
2023-03-03T03:12:43.881Z,40.50
2023-03-03T03:15:12.039Z,40.50
2023-03-03T03:17:39.997Z,40.60
2023-03-03T03:20:07.991Z,40.60
2023-03-03T03:22:37.000Z,40.60
2023-03-03T03:25:07.374Z,40.40
2023-03-03T03:27:35.153Z,40.60
2023-03-03T03:30:05.015Z,40.30
2023-03-03T03:32:32.974Z,40.50
2023-03-03T03:35:06.033Z,41.10
2023-03-03T03:37:36.493Z,40.40
2023-03-03T03:40:04.208Z,40.60
2023-03-03T03:42:34.158Z,40.50
2023-03-03T03:45:02.181Z,40.50
2023-03-03T03:47:29.936Z,40.30
2023-03-03T03:49:58.245Z,40.40
2023-03-03T03:52:26.573Z,40.50
2023-03-03T03:54:54.320Z,40.40
2023-03-03T03:57:26.577Z,40.50
2023-03-03T03:59:54.526Z,40.50
2023-03-03T04:02:22.391Z,40.40
2023-03-03T04:04:50.276Z,40.50
2023-03-03T04:07:19.154Z,40.60
2023-03-03T04:09:47.032Z,40.50
2023-03-03T04:12:14.785Z,40.60
2023-03-03T04:14:42.624Z,40.70
2023-03-03T04:17:10.526Z,40.60
2023-03-03T04:19:38.380Z,40.60
2023-03-03T04:22:07.054Z,40.60
2023-03-03T04:24:36.127Z,40.50
2023-03-03T04:27:03.971Z,40.40
2023-03-03T04:29:31.940Z,40.70
2023-03-03T04:31:59.701Z,40.50
2023-03-03T04:34:27.528Z,40.60
2023-03-03T04:36:55.717Z,40.70
2023-03-03T04:39:23.475Z,40.70
2023-03-03T04:41:51.279Z,40.80
2023-03-03T04:44:19.005Z,41.10
2023-03-03T04:46:46.802Z,40.80
2023-03-03T04:49:14.613Z,40.80
2023-03-03T04:51:42.403Z,41.00
2023-03-03T04:54:10.171Z,41.10
2023-03-03T04:56:37.917Z,41.00
2023-03-03T04:59:06.705Z,40.90
2023-03-03T05:01:34.893Z,41.00
2023-03-03T05:04:02.655Z,40.90
2023-03-03T05:06:30.782Z,40.80
2023-03-03T05:08:58.595Z,40.90
2023-03-03T05:11:26.967Z,40.90
2023-03-03T05:13:54.785Z,40.80
2023-03-03T05:16:22.598Z,40.80
2023-03-03T05:25:42.455Z,40.80
2023-03-03T05:28:13.003Z,41.40
2023-03-03T05:32:01.517Z,40.90
2023-03-03T05:34:31.168Z,41.50
2023-03-03T05:36:59.043Z,41.80
2023-03-03T05:39:29.417Z,41.90
2023-03-03T05:41:57.255Z,41.80
2023-03-03T05:44:25.537Z,42.00
2023-03-03T05:46:53.356Z,42.00
2023-03-03T05:49:31.708Z,41.50
2023-03-03T05:52:00.777Z,41.90
2023-03-03T05:55:01.818Z,41.20
2023-03-03T05:57:30.549Z,42.00
2023-03-03T06:05:49.228Z,41.50
2023-03-03T06:08:17.049Z,42.00
2023-03-03T06:10:44.747Z,41.90
2023-03-03T06:13:12.532Z,41.70
2023-03-03T06:15:40.344Z,41.90
2023-03-03T06:18:08.341Z,41.80
2023-03-03T06:20:36.666Z,41.60
2023-03-03T06:23:04.431Z,41.90
2023-03-03T06:25:32.202Z,41.80
2023-03-03T06:28:00.658Z,41.70
2023-03-03T06:30:28.551Z,41.70
2023-03-03T06:32:56.390Z,41.70
2023-03-03T06:35:24.195Z,41.80
2023-03-03T06:37:52.069Z,41.90
2023-03-03T06:40:19.828Z,41.80
2023-03-03T06:42:47.648Z,41.70
2023-03-03T06:45:16.001Z,41.70
2023-03-03T06:47:43.752Z,41.70
2023-03-03T06:50:11.505Z,41.70
2023-03-03T06:52:39.281Z,41.60
2023-03-03T06:55:07.034Z,41.70
2023-03-03T06:57:34.790Z,41.70
2023-03-03T07:00:02.588Z,41.70
2023-03-03T07:02:31.396Z,41.60
2023-03-03T07:04:59.165Z,41.00
2023-03-03T07:07:26.922Z,41.30
2023-03-03T07:09:54.810Z,41.10
2023-03-03T07:12:23.028Z,40.90
2023-03-03T07:14:56.267Z,41.10
2023-03-03T07:17:23.996Z,41.20
2023-03-03T07:19:51.704Z,40.90
2023-03-03T07:22:19.494Z,42.10
2023-03-03T07:24:48.285Z,41.40
2023-03-03T07:27:16.090Z,41.50
2023-03-03T07:29:43.884Z,41.40
2023-03-03T07:32:11.866Z,41.30
2023-03-03T07:34:39.645Z,41.30
2023-03-03T07:37:07.383Z,41.30
2023-03-03T07:40:55.255Z,40.70
2023-03-03T07:43:23.029Z,41.10
2023-03-03T07:45:51.303Z,41.10
2023-03-03T07:48:19.882Z,41.20
2023-03-03T07:50:49.193Z,41.00
2023-03-03T07:53:16.992Z,41.00
2023-03-03T07:55:47.734Z,40.90
2023-03-03T07:58:16.526Z,41.10
2023-03-03T08:00:44.375Z,41.10
2023-03-03T08:03:12.292Z,41.20
2023-03-03T08:05:40.083Z,41.10
2023-03-03T08:09:25.195Z,40.70
2023-03-03T08:11:52.996Z,40.90
2023-03-03T08:14:20.746Z,41.10
2023-03-03T08:16:48.514Z,41.00
2023-03-03T08:19:16.338Z,41.10
2023-03-03T08:21:44.091Z,41.00
2023-03-03T08:24:11.861Z,41.00
2023-03-03T08:26:39.616Z,41.00
2023-03-03T08:29:07.394Z,40.90
2023-03-03T08:31:41.537Z,40.90
2023-03-03T08:34:09.861Z,41.10
2023-03-03T08:36:37.656Z,40.90
2023-03-03T08:39:05.444Z,40.90
2023-03-03T08:41:37.526Z,40.80
2023-03-03T08:44:55.089Z,40.20
2023-03-03T08:47:22.854Z,40.80
2023-03-03T08:49:50.621Z,40.90
2023-03-03T08:52:18.388Z,40.90
2023-03-03T08:54:46.150Z,40.90
2023-03-03T08:57:13.910Z,40.50
2023-03-03T08:59:41.756Z,40.60
2023-03-03T09:02:09.884Z,40.70
2023-03-03T09:04:37.686Z,40.70
2023-03-03T09:07:05.560Z,40.90
2023-03-03T09:09:33.396Z,40.90
2023-03-03T09:12:01.148Z,40.80
2023-03-03T09:14:28.931Z,40.70
2023-03-03T09:16:58.365Z,40.80
2023-03-03T09:19:26.244Z,40.60
2023-03-03T09:21:54.878Z,40.50
2023-03-03T09:25:42.306Z,40.30
2023-03-03T09:28:10.267Z,40.60
2023-03-03T09:30:39.381Z,40.50
2023-03-03T09:33:07.213Z,40.50
2023-03-03T09:35:40.226Z,40.50
2023-03-03T09:38:08.105Z,40.70
2023-03-03T09:40:35.812Z,40.70
2023-03-03T09:44:26.290Z,40.30
2023-03-03T09:46:54.121Z,40.80
2023-03-03T09:49:21.950Z,40.70
2023-03-03T09:51:50.428Z,40.40
2023-03-03T09:54:18.192Z,40.60
2023-03-03T09:56:46.662Z,40.60
2023-03-03T09:59:14.621Z,40.60
2023-03-03T10:01:42.389Z,40.50
2023-03-03T10:04:10.175Z,40.60
2023-03-03T10:06:38.106Z,40.60
2023-03-03T10:10:41.266Z,40.10
2023-03-03T10:13:09.224Z,40.70
2023-03-03T10:15:37.094Z,40.70
2023-03-03T10:18:05.457Z,40.50
2023-03-03T10:20:47.611Z,40.60
2023-03-03T10:23:21.167Z,40.70
2023-03-03T10:25:48.991Z,40.70
2023-03-03T10:28:16.785Z,40.60
2023-03-03T10:30:58.485Z,40.40
2023-03-03T10:34:25.917Z,39.90
2023-03-03T10:36:53.672Z,40.60
2023-03-03T10:39:21.606Z,40.50
2023-03-03T10:41:49.393Z,40.70
2023-03-03T10:44:17.529Z,40.50
2023-03-03T10:46:46.467Z,40.60
2023-03-03T10:49:14.795Z,40.60
2023-03-03T10:51:42.611Z,40.70
2023-03-03T10:54:30.965Z,40.40
2023-03-03T10:56:58.864Z,40.70
2023-03-03T10:59:26.683Z,40.60
2023-03-03T11:01:54.470Z,40.50
2023-03-03T11:04:22.285Z,40.60
2023-03-03T11:06:50.269Z,40.60
2023-03-03T11:09:18.822Z,40.70
2023-03-03T11:11:46.765Z,40.60
2023-03-03T11:14:15.944Z,40.50
2023-03-03T11:16:43.822Z,40.60
2023-03-03T11:19:11.706Z,40.60
2023-03-03T11:21:39.447Z,40.40
2023-03-03T11:24:07.248Z,40.70
2023-03-03T11:26:35.151Z,40.60
2023-03-03T11:29:03.013Z,40.50
2023-03-03T11:31:31.992Z,40.60
2023-03-03T11:34:00.114Z,40.60
2023-03-03T11:36:27.903Z,40.50
2023-03-03T11:38:55.816Z,40.50
2023-03-03T11:41:23.628Z,40.50
2023-03-03T11:43:51.424Z,40.50
2023-03-03T11:46:19.323Z,40.40
2023-03-03T11:48:47.087Z,40.40
2023-03-03T11:51:16.872Z,40.50
2023-03-03T11:53:44.712Z,40.50
2023-03-03T11:56:12.492Z,40.40
2023-03-03T11:58:40.218Z,40.60
2023-03-03T12:01:08.030Z,40.70
2023-03-03T12:03:36.878Z,40.50
2023-03-03T12:06:04.983Z,40.60
2023-03-03T12:08:32.861Z,40.50
2023-03-03T12:11:00.747Z,40.40
2023-03-03T12:13:28.764Z,40.60
2023-03-03T12:15:56.567Z,40.50
2023-03-03T12:18:24.366Z,40.60
2023-03-03T12:20:52.325Z,40.40
2023-03-03T12:23:20.076Z,40.60
2023-03-03T12:25:49.094Z,40.60
2023-03-03T12:28:16.840Z,40.50
2023-03-03T12:30:44.595Z,40.40
2023-03-03T12:33:12.574Z,40.40
2023-03-03T12:35:40.517Z,40.50
2023-03-03T12:38:08.373Z,40.40
2023-03-03T12:40:36.177Z,40.60
2023-03-03T12:43:05.814Z,40.50
2023-03-03T12:45:33.668Z,41.10
2023-03-03T12:48:03.848Z,40.40
2023-03-03T12:50:31.653Z,40.50
2023-03-03T12:53:00.006Z,40.50
2023-03-03T12:55:28.162Z,40.50
2023-03-03T12:57:55.893Z,40.60
2023-03-03T13:00:24.364Z,40.60
2023-03-03T13:02:52.241Z,40.60
2023-03-03T13:05:20.010Z,40.50
2023-03-03T13:07:48.387Z,40.60
2023-03-03T13:10:16.233Z,40.60
2023-03-03T13:12:44.077Z,40.60
2023-03-03T13:15:13.829Z,40.60
2023-03-03T13:17:43.721Z,40.60
2023-03-03T13:20:11.525Z,40.50
2023-03-03T13:22:39.270Z,40.60
2023-03-03T13:25:07.202Z,40.60
2023-03-03T13:27:34.976Z,40.60
2023-03-03T13:30:02.979Z,40.50
2023-03-03T13:32:30.999Z,40.40
2023-03-03T13:34:59.309Z,40.40
2023-03-03T13:37:27.364Z,40.30
2023-03-03T13:39:55.162Z,40.30
2023-03-03T13:42:23.222Z,40.60
2023-03-03T13:44:51.074Z,40.50
2023-03-03T13:47:18.980Z,41.10
2023-03-03T13:49:47.863Z,40.50
2023-03-03T13:52:17.429Z,40.60
2023-03-03T13:54:47.475Z,40.60
2023-03-03T13:57:15.270Z,40.70
2023-03-03T13:59:43.066Z,40.60
2023-03-03T14:02:11.190Z,40.60
2023-03-03T14:04:38.977Z,40.60
2023-03-03T14:07:06.826Z,40.60
2023-03-03T14:09:34.780Z,40.60
2023-03-03T14:12:03.549Z,40.60
2023-03-03T14:14:31.370Z,40.60
2023-03-03T14:16:59.458Z,40.60
2023-03-03T14:19:27.569Z,40.70
2023-03-03T14:21:55.386Z,40.60
2023-03-03T14:24:23.155Z,40.70
2023-03-03T14:26:50.950Z,40.60
2023-03-03T14:29:19.190Z,40.60
2023-03-03T14:31:47.852Z,40.60
2023-03-03T14:34:16.854Z,40.60
2023-03-03T14:36:45.941Z,40.70
2023-03-03T14:39:13.835Z,40.70
2023-03-03T14:41:41.625Z,40.70
2023-03-03T14:44:09.548Z,40.40
2023-03-03T14:46:37.418Z,40.30
2023-03-03T14:49:05.270Z,40.20
2023-03-03T14:51:34.217Z,39.60
2023-03-03T14:54:02.073Z,39.00
2023-03-03T14:56:30.228Z,38.10
2023-03-03T14:58:58.003Z,37.50
2023-03-03T15:01:25.859Z,37.10
2023-03-03T15:03:55.622Z,36.70
2023-03-03T15:06:23.375Z,36.30
2023-03-03T15:08:51.175Z,35.70
2023-03-03T15:11:18.957Z,35.30
2023-03-03T15:13:46.719Z,35.00
2023-03-03T15:16:14.568Z,34.60
2023-03-03T15:18:42.400Z,34.60
2023-03-03T15:21:10.152Z,34.30
2023-03-03T15:23:38.013Z,33.90
2023-03-03T15:26:05.764Z,33.90
2023-03-03T15:28:33.609Z,34.10
2023-03-03T15:31:13.219Z,34.00
2023-03-03T15:33:40.986Z,34.20
2023-03-03T15:36:08.818Z,34.10
2023-03-03T15:38:36.713Z,34.00
2023-03-03T15:41:04.518Z,34.20
2023-03-03T15:43:34.295Z,34.20
2023-03-03T15:46:02.113Z,34.80
2023-03-03T15:48:29.912Z,34.70
2023-03-03T15:50:58.052Z,34.60
2023-03-03T15:53:25.973Z,34.70
2023-03-03T15:55:53.799Z,34.60
2023-03-03T15:58:21.649Z,34.60
2023-03-03T16:00:49.457Z,34.70
2023-03-03T16:03:17.493Z,35.00
2023-03-03T16:05:45.978Z,35.40
2023-03-03T16:08:16.669Z,35.60
2023-03-03T16:10:45.334Z,35.80
2023-03-03T16:13:13.100Z,36.10
2023-03-03T16:15:40.909Z,35.80
2023-03-03T16:18:08.760Z,36.20
2023-03-03T16:20:37.879Z,35.90
2023-03-03T16:23:07.207Z,36.10
2023-03-03T16:40:05.359Z,37.50
2023-03-03T16:42:33.325Z,38.00
2023-03-03T16:45:01.069Z,37.60
2023-03-03T16:47:29.011Z,37.50
2023-03-03T16:49:56.771Z,37.10
2023-03-03T16:52:24.741Z,36.80
2023-03-03T16:54:54.497Z,36.10
2023-03-03T16:57:24.168Z,36.10
2023-03-03T16:59:52.608Z,36.00
2023-03-03T17:02:25.065Z,35.70
2023-03-03T17:05:00.251Z,35.30
2023-03-03T17:07:28.261Z,35.40
2023-03-03T17:09:56.013Z,35.40
2023-03-03T17:15:01.809Z,34.80
2023-03-03T17:17:29.543Z,35.60
2023-03-03T17:20:00.407Z,35.30
2023-03-03T17:22:29.612Z,35.10
2023-03-03T17:24:57.490Z,35.20
2023-03-03T17:28:00.133Z,35.00
2023-03-03T17:30:27.879Z,36.00
2023-03-03T17:32:55.663Z,36.30
2023-03-03T17:35:23.882Z,36.30
2023-03-03T17:37:51.645Z,36.50
2023-03-03T17:40:21.000Z,36.70
2023-03-03T17:45:19.039Z,36.10
2023-03-03T17:47:46.887Z,36.30
2023-03-03T17:50:26.671Z,36.50
2023-03-03T17:52:54.496Z,36.90
2023-03-03T17:55:23.174Z,37.90
2023-03-03T17:59:10.183Z,37.70
2023-03-03T18:01:38.901Z,38.40
2023-03-03T18:04:07.536Z,38.70
2023-03-03T18:06:35.423Z,38.70
2023-03-03T18:09:14.139Z,38.90
2023-03-03T18:11:42.490Z,39.00
2023-03-03T18:14:10.253Z,39.00
2023-03-03T18:16:38.213Z,39.40
2023-03-03T18:19:05.961Z,39.60
2023-03-03T18:21:35.230Z,39.60
2023-03-03T18:24:03.124Z,39.20
2023-03-03T18:26:31.080Z,39.00
2023-03-03T18:28:58.961Z,38.40
2023-03-03T18:31:26.855Z,38.00
2023-03-03T18:33:54.595Z,37.30
2023-03-03T18:36:22.358Z,36.90
2023-03-03T18:38:50.093Z,36.50
2023-03-03T18:41:17.860Z,36.00
2023-03-03T18:43:48.822Z,35.80
2023-03-03T18:46:16.830Z,35.80
2023-03-03T18:48:44.975Z,35.30
2023-03-03T18:51:13.107Z,35.10
2023-03-03T18:53:40.819Z,35.00
2023-03-03T18:56:08.728Z,34.90
2023-03-03T18:58:36.699Z,35.00
2023-03-03T19:01:04.508Z,34.90
2023-03-03T19:03:32.329Z,34.90
2023-03-03T19:06:00.414Z,35.30
2023-03-03T19:08:28.260Z,35.40
2023-03-03T19:10:56.029Z,35.30
2023-03-03T19:13:23.878Z,35.40
2023-03-03T19:15:51.678Z,35.60
2023-03-03T19:18:19.433Z,35.60
2023-03-03T19:20:48.139Z,35.60
2023-03-03T19:23:18.773Z,36.00
2023-03-03T19:25:46.550Z,35.90
2023-03-03T19:28:14.310Z,35.90
2023-03-03T19:30:42.338Z,36.10
2023-03-03T19:33:10.542Z,36.20
2023-03-03T19:35:38.344Z,36.30
2023-03-03T19:38:06.389Z,36.40
2023-03-03T19:40:34.279Z,36.60
2023-03-03T19:43:29.916Z,35.70
2023-03-03T19:45:57.719Z,36.70
2023-03-03T19:48:25.525Z,36.60
2023-03-03T19:50:53.248Z,36.70
2023-03-03T19:53:21.066Z,37.30
2023-03-03T19:55:48.821Z,37.60
2023-03-03T19:58:18.398Z,37.80
2023-03-03T20:02:37.837Z,38.00
2023-03-03T20:05:06.159Z,38.80
2023-03-03T20:07:40.816Z,38.40
2023-03-03T20:10:08.692Z,39.20
2023-03-03T20:12:36.684Z,39.40
2023-03-03T20:17:19.206Z,39.10
2023-03-03T20:19:47.080Z,39.70
2023-03-03T20:22:17.740Z,39.70
2023-03-03T20:24:46.167Z,39.70
2023-03-03T20:27:14.089Z,39.80
2023-03-03T20:29:41.963Z,39.90
2023-03-03T20:32:11.295Z,39.80
2023-03-03T20:34:39.120Z,39.90
2023-03-03T20:37:06.909Z,39.90
2023-03-03T20:39:34.703Z,40.10
2023-03-03T20:42:06.189Z,40.10
2023-03-03T20:44:33.951Z,40.10
2023-03-03T20:47:01.766Z,40.20
2023-03-03T20:49:32.429Z,40.30
2023-03-03T20:52:00.500Z,40.50
2023-03-03T20:54:30.319Z,40.40
2023-03-03T20:56:58.234Z,40.50
2023-03-03T20:59:27.519Z,40.40
2023-03-03T21:01:59.232Z,40.20
2023-03-03T21:04:50.792Z,40.40
2023-03-03T21:07:39.480Z,40.50
2023-03-03T21:10:10.074Z,40.50
2023-03-03T21:12:40.819Z,40.30
2023-03-03T21:16:41.159Z,39.80
2023-03-03T21:19:10.327Z,40.30
2023-03-03T21:21:38.138Z,40.30
2023-03-03T21:24:05.852Z,40.20
2023-03-03T21:26:33.652Z,40.30
2023-03-03T21:29:03.502Z,40.40
2023-03-03T21:31:34.048Z,40.40
2023-03-03T21:34:04.617Z,40.30
2023-03-03T21:36:32.557Z,40.40
2023-03-03T21:39:02.244Z,40.60
2023-03-03T21:41:30.514Z,40.60
2023-03-03T21:44:02.112Z,40.70
2023-03-03T21:46:30.005Z,40.60
2023-03-03T21:48:57.853Z,40.60
2023-03-03T21:51:28.832Z,40.70
2023-03-03T21:53:56.573Z,40.60
2023-03-03T21:56:24.496Z,40.80
2023-03-03T21:58:52.216Z,40.70
2023-03-03T22:01:19.955Z,40.60
2023-03-03T22:03:48.741Z,40.80
2023-03-03T22:06:16.527Z,40.60
2023-03-03T22:08:44.272Z,40.50
2023-03-03T22:11:12.661Z,40.70
2023-03-03T22:13:41.499Z,40.90
2023-03-03T22:16:09.294Z,41.00
2023-03-03T22:18:37.115Z,40.90
2023-03-03T22:21:05.807Z,41.10
2023-03-03T22:23:33.724Z,41.00
2023-03-03T22:26:02.183Z,41.00
2023-03-03T22:28:30.298Z,40.80
2023-03-03T22:30:58.198Z,40.90
2023-03-03T22:33:25.966Z,40.90
2023-03-03T22:35:53.858Z,40.90
2023-03-03T22:38:23.754Z,40.90
2023-03-03T22:40:51.664Z,41.00
2023-03-03T22:43:19.463Z,41.00
2023-03-03T22:45:47.723Z,41.00
2023-03-03T22:48:15.641Z,41.60
2023-03-03T22:50:45.195Z,41.00
2023-03-03T22:53:12.974Z,40.90
2023-03-03T22:55:40.776Z,40.90
2023-03-03T22:58:09.519Z,40.90
2023-03-03T23:00:38.448Z,40.80
2023-03-03T23:03:06.183Z,41.00
2023-03-03T23:05:34.099Z,41.00
2023-03-03T23:08:02.237Z,41.00
2023-03-03T23:10:30.035Z,40.90
2023-03-03T23:12:57.869Z,40.90
2023-03-03T23:15:26.034Z,41.00
2023-03-03T23:17:53.760Z,41.00
2023-03-03T23:20:21.540Z,40.90
2023-03-03T23:22:49.370Z,40.90
2023-03-03T23:25:17.137Z,40.80
2023-03-03T23:27:45.001Z,41.00
2023-03-03T23:30:12.716Z,41.00
2023-03-03T23:32:40.489Z,41.00
2023-03-03T23:35:08.194Z,41.00
2023-03-03T23:37:35.967Z,41.00
2023-03-03T23:40:03.694Z,40.80
2023-03-03T23:42:31.837Z,41.20
2023-03-03T23:44:59.667Z,41.10
2023-03-03T23:47:27.384Z,41.10
2023-03-03T23:49:55.203Z,41.20
2023-03-03T23:52:22.949Z,41.10
2023-03-03T23:54:51.495Z,41.20
2023-03-03T23:57:19.418Z,41.20
2023-03-03T23:59:49.339Z,41.10
